Time;durP1;ratioP1;P1;durP2;ratioP2;P2;SDS_P1;SDS_P2;PMS_P1;PMS_P2;Temp;Humidity;BMP_temperature;BMP_pressure;BME280_temperature;BME280_humidity;BME280_pressure;Samples;Min_cycle;Max_cycle;Signal;HPM_P1;HPM_P2
2022/01/10 00:00:07;;;;;;;414.92;135.18;;;;;;;6.85;100.00;98290.50;342594;28;849;-75
2022/01/10 00:00:19;;;;;;;414.70;135.93;;;;;;;6.84;100.00;98295.78;343814;28;1244;-75
2022/01/10 00:00:29;;;;;;;414.55;134.88;;;;;;;6.85;100.00;98295.69;341161;28;1501;-75
2022/01/10 00:00:44;;;;;;;417.03;134.63;;;;;;;6.86;100.00;98294.78;339919;29;998;-75
2022/01/10 00:00:54;;;;;;;417.08;134.60;;;;;;;6.86;100.00;98294.78;341005;29;1284;-74
2022/01/10 00:01:06;;;;;;;417.38;135.23;;;;;;;6.84;100.00;98296.63;343991;28;1327;-74
2022/01/10 00:01:17;;;;;;;415.70;134.57;;;;;;;6.84;100.00;98296.63;342380;28;1644;-74
2022/01/10 00:01:28;;;;;;;414.47;133.13;;;;;;;6.85;100.00;98292.25;342544;28;1649;-74
2022/01/10 00:01:39;;;;;;;415.88;134.48;;;;;;;6.85;100.00;98292.25;342605;28;1519;-75
2022/01/10 00:01:50;;;;;;;416.00;134.37;;;;;;;6.86;100.00;98292.19;340758;28;1891;-75
2022/01/10 00:02:00;;;;;;;414.08;133.30;;;;;;;6.86;100.00;98297.38;342557;28;1042;-76
2022/01/10 00:02:11;;;;;;;418.20;134.38;;;;;;;6.85;100.00;98293.09;341297;29;885;-75
2022/01/10 00:02:21;;;;;;;423.20;137.30;;;;;;;6.85;100.00;98300.06;343994;28;1592;-75
2022/01/10 00:02:31;;;;;;;424.75;136.93;;;;;;;6.84;100.00;98303.56;343637;28;1306;-75
2022/01/10 00:02:43;;;;;;;423.07;137.33;;;;;;;6.84;100.00;98301.81;339899;29;1661;-74
2022/01/10 00:02:54;;;;;;;421.40;137.70;;;;;;;6.84;100.00;98300.97;340301;28;1368;-74
2022/01/10 00:03:05;;;;;;;422.20;137.45;;;;;;;6.83;100.00;98299.28;342489;28;1319;-75
2022/01/10 00:03:15;;;;;;;422.05;137.80;;;;;;;6.84;100.00;98299.22;343063;28;1627;-74
2022/01/10 00:03:26;;;;;;;422.85;136.63;;;;;;;6.83;100.00;98300.13;338350;29;1566;-73
2022/01/10 00:03:36;;;;;;;421.60;136.10;;;;;;;6.85;100.00;98300.06;341230;29;1467;-73
2022/01/10 00:03:47;;;;;;;421.17;135.73;;;;;;;6.83;100.00;98302.72;340520;29;1635;-73
2022/01/10 00:03:57;;;;;;;420.20;135.38;;;;;;;6.84;100.00;98299.22;343770;28;2031;-74
2022/01/10 00:04:07;;;;;;;420.83;136.97;;;;;;;6.84;100.00;98301.81;340713;29;1742;-74
2022/01/10 00:04:18;;;;;;;421.25;135.50;;;;;;;6.84;100.00;98304.41;342540;28;1527;-73
2022/01/10 00:04:28;;;;;;;421.70;136.37;;;;;;;6.83;100.00;98297.53;341042;28;1432;-73
2022/01/10 00:04:39;;;;;;;418.77;135.43;;;;;;;6.84;100.00;98298.38;341254;28;1390;-73
2022/01/10 00:04:50;;;;;;;418.33;137.23;;;;;;;6.82;100.00;98295.00;343759;28;1579;-73
2022/01/10 00:05:00;;;;;;;421.17;136.95;;;;;;;6.82;100.00;98293.25;342523;28;1453;-73
2022/01/10 00:05:11;;;;;;;421.57;137.07;;;;;;;6.83;100.00;98294.94;339943;29;1396;-73
2022/01/10 00:05:21;;;;;;;420.52;137.65;;;;;;;6.83;100.00;98292.31;342565;28;1865;-73
2022/01/10 00:05:32;;;;;;;418.03;136.67;;;;;;;6.83;100.00;98294.94;341194;29;909;-73
2022/01/10 00:05:42;;;;;;;417.85;136.25;;;;;;;6.84;100.00;98294.00;342385;28;2060;-73
2022/01/10 00:05:53;;;;;;;417.33;134.30;;;;;;;6.83;100.00;98297.53;341148;29;1659;-73
2022/01/10 00:06:03;;;;;;;419.95;135.10;;;;;;;6.83;100.00;98294.94;342498;28;1259;-73
2022/01/10 00:06:13;;;;;;;420.93;137.20;;;;;;;6.84;100.00;98294.00;339918;29;985;-74
2022/01/10 00:06:24;;;;;;;422.15;139.00;;;;;;;6.84;100.00;98299.22;341216;29;1166;-73
2022/01/10 00:06:35;;;;;;;420.77;138.97;;;;;;;6.84;100.00;98294.00;338523;29;1361;-73
2022/01/10 00:06:46;;;;;;;421.73;137.30;;;;;;;6.86;100.00;98297.38;342540;28;1602;-73
2022/01/10 00:06:56;;;;;;;421.73;136.70;;;;;;;6.84;100.00;98296.63;343380;28;1744;-73
2022/01/10 00:07:06;;;;;;;420.27;136.00;;;;;;;6.84;100.00;98294.00;343735;28;1715;-74
2022/01/10 00:07:17;;;;;;;416.20;134.60;;;;;;;6.86;100.00;98292.19;341833;28;1809;-74
2022/01/10 00:07:27;;;;;;;418.10;137.47;;;;;;;6.87;100.00;98299.06;343596;28;1681;-74
2022/01/10 00:07:38;;;;;;;420.02;138.90;;;;;;;6.85;100.00;98290.50;342610;28;972;-74
2022/01/10 00:07:49;;;;;;;421.55;138.75;;;;;;;6.86;100.00;98297.38;343749;28;1472;-74
2022/01/10 00:08:02;;;;;;;420.48;135.20;;;;;;;6.87;100.00;98283.47;341178;29;1419;-74
2022/01/10 00:08:14;;;;;;;416.85;134.00;;;;;;;6.88;100.00;98292.13;341247;29;863;-74
2022/01/10 00:08:25;;;;;;;416.75;136.23;;;;;;;6.88;100.00;98289.50;340081;29;1686;-73
2022/01/10 00:08:37;;;;;;;415.38;136.32;;;;;;;6.88;100.00;98298.16;338416;29;1949;-73
2022/01/10 00:08:47;;;;;;;415.08;137.57;;;;;;;6.89;100.00;98293.78;338523;29;1187;-73
2022/01/10 00:08:58;;;;;;;414.48;135.77;;;;;;;6.89;100.00;98299.00;341167;29;1683;-74
2022/01/10 00:09:08;;;;;;;415.63;134.00;;;;;;;6.88;100.00;98290.34;342498;28;1798;-74
2022/01/10 00:09:19;;;;;;;418.13;134.27;;;;;;;6.88;100.00;98290.34;345060;28;1583;-73
2022/01/10 00:09:29;;;;;;;420.40;135.63;;;;;;;6.88;100.00;98295.56;345174;28;1719;-73
2022/01/10 00:09:39;;;;;;;420.63;138.50;;;;;;;6.89;100.00;98299.84;342571;28;853;-73
2022/01/10 00:09:50;;;;;;;418.63;136.90;;;;;;;6.89;100.00;98294.63;343663;28;1297;-73
2022/01/10 00:10:02;;;;;;;417.77;136.70;;;;;;;6.89;100.00;98294.63;342536;28;1931;-75
2022/01/10 00:10:12;;;;;;;415.95;135.20;;;;;;;6.90;100.00;98295.47;341180;29;1272;-75
2022/01/10 00:10:23;;;;;;;415.20;135.50;;;;;;;6.89;100.00;98299.84;342542;28;1326;-75
2022/01/10 00:10:34;;;;;;;416.55;134.18;;;;;;;6.89;100.00;98296.41;341117;28;1340;-75
2022/01/10 00:10:44;;;;;;;418.27;134.57;;;;;;;6.88;100.00;98294.72;337057;29;1551;-75
2022/01/10 00:10:55;;;;;;;419.37;134.77;;;;;;;6.88;100.00;98300.75;341205;28;1644;-75
2022/01/10 00:11:05;;;;;;;417.38;137.68;;;;;;;6.84;100.00;98294.00;343931;28;973;-75
2022/01/10 00:11:15;;;;;;;422.67;139.47;;;;;;;6.87;100.00;98293.03;342507;28;1027;-75
2022/01/10 00:11:26;;;;;;;421.58;140.32;;;;;;;6.88;100.00;98300.75;339695;29;1672;-74
2022/01/10 00:11:36;;;;;;;423.30;139.17;;;;;;;6.88;100.00;98300.75;339999;29;909;-74
2022/01/10 00:11:47;;;;;;;414.40;136.07;;;;;;;6.89;100.00;98301.59;339723;29;1103;-74
2022/01/10 00:11:57;;;;;;;413.13;134.33;;;;;;;6.89;100.00;98299.84;342186;28;1531;-74
2022/01/10 00:12:08;;;;;;;409.25;132.57;;;;;;;6.88;100.00;98300.75;342592;28;968;-74
2022/01/10 00:12:18;;;;;;;410.33;134.30;;;;;;;6.88;100.00;98292.97;343769;28;1589;-74
2022/01/10 00:12:28;;;;;;;413.98;134.93;;;;;;;6.88;100.00;98295.56;343639;28;1481;-74
2022/01/10 00:12:39;;;;;;;415.00;135.30;;;;;;;6.88;100.00;98300.75;339915;29;899;-74
2022/01/10 00:12:50;;;;;;;416.48;132.45;;;;;;;6.89;100.00;98299.00;340637;28;1590;-74
2022/01/10 00:13:00;;;;;;;414.77;131.70;;;;;;;6.90;100.00;98298.09;338834;28;1358;-74
2022/01/10 00:13:10;;;;;;;419.20;133.98;;;;;;;6.89;100.00;98296.41;338560;29;1357;-74
2022/01/10 00:13:21;;;;;;;419.07;136.50;;;;;;;6.88;100.00;98298.16;342208;28;1916;-73
2022/01/10 00:13:31;;;;;;;420.52;137.80;;;;;;;6.89;100.00;98301.59;343904;28;892;-74
2022/01/10 00:13:42;;;;;;;416.97;136.33;;;;;;;6.89;100.00;98302.44;346629;28;861;-74
2022/01/10 00:13:52;;;;;;;417.20;134.93;;;;;;;6.88;100.00;98290.34;342104;28;1582;-74
2022/01/10 00:14:02;;;;;;;420.60;135.10;;;;;;;6.87;100.00;98296.47;343113;28;1139;-74
2022/01/10 00:14:13;;;;;;;423.52;136.73;;;;;;;6.88;100.00;98299.91;342022;28;2001;-74
2022/01/10 00:14:24;;;;;;;422.42;137.93;;;;;;;6.87;100.00;98293.88;342229;28;1553;-74
2022/01/10 00:14:35;;;;;;;417.53;136.40;;;;;;;6.86;100.00;98296.53;341250;29;940;-74
2022/01/10 00:14:45;;;;;;;416.75;135.77;;;;;;;6.87;100.00;98299.06;343796;28;1544;-74
2022/01/10 00:14:55;;;;;;;414.40;134.50;;;;;;;6.85;100.00;98295.69;342480;28;1561;-74
2022/01/10 00:15:06;;;;;;;414.57;133.33;;;;;;;6.87;100.00;98298.22;345302;28;914;-74
2022/01/10 00:15:17;;;;;;;413.52;132.18;;;;;;;6.86;100.00;98301.75;340998;28;1823;-74
2022/01/10 00:15:27;;;;;;;414.63;131.97;;;;;;;6.84;100.00;98299.22;341111;29;1578;-74
2022/01/10 00:15:38;;;;;;;422.13;132.93;;;;;;;6.85;100.00;98300.91;338472;29;1209;-74
2022/01/10 00:15:48;;;;;;;422.70;133.73;;;;;;;6.85;100.00;98300.91;342132;28;1310;-75
2022/01/10 00:15:58;;;;;;;423.67;134.23;;;;;;;6.84;100.00;98298.38;342415;28;1783;-74
2022/01/10 00:16:09;;;;;;;422.00;134.83;;;;;;;6.85;100.00;98293.09;338501;29;1416;-74
2022/01/10 00:16:19;;;;;;;422.02;133.98;;;;;;;6.85;100.00;98300.91;341835;28;1010;-74
2022/01/10 00:16:29;;;;;;;421.97;133.13;;;;;;;6.86;100.00;98299.97;343715;28;1229;-74
2022/01/10 00:16:40;;;;;;;419.40;133.40;;;;;;;6.85;100.00;98300.91;344017;28;1429;-74
2022/01/10 00:16:50;;;;;;;419.00;133.67;;;;;;;6.86;100.00;98297.38;345036;28;1311;-74
2022/01/10 00:17:01;;;;;;;421.00;137.82;;;;;;;6.87;100.00;98298.22;342508;28;869;-74
2022/01/10 00:17:11;;;;;;;422.03;137.77;;;;;;;6.87;100.00;98300.81;338539;29;1179;-74
2022/01/10 00:17:22;;;;;;;422.52;140.07;;;;;;;6.86;100.00;98292.19;342382;28;1744;-74
2022/01/10 00:17:32;;;;;;;418.50;137.33;;;;;;;6.87;100.00;98299.06;344936;28;1585;-74
2022/01/10 00:17:43;;;;;;;417.65;137.90;;;;;;;6.87;100.00;98299.06;341095;29;897;-74
2022/01/10 00:17:53;;;;;;;424.15;137.50;;;;;;;6.85;100.00;98300.91;340978;29;1634;-73
2022/01/10 00:18:04;;;;;;;428.23;138.13;;;;;;;6.88;100.00;98305.13;342513;28;1346;-73
2022/01/10 00:18:14;;;;;;;427.30;136.75;;;;;;;6.88;100.00;98299.91;345426;28;1421;-73
2022/01/10 00:18:25;;;;;;;424.47;137.50;;;;;;;6.86;100.00;98302.59;343727;28;1655;-74
2022/01/10 00:18:35;;;;;;;423.40;135.27;;;;;;;6.87;100.00;98300.81;342522;28;932;-73
2022/01/10 00:18:45;;;;;;;423.90;134.37;;;;;;;6.85;100.00;98300.91;339638;28;1684;-73
2022/01/10 00:18:56;;;;;;;419.48;132.05;;;;;;;6.86;100.00;98299.13;343762;28;1207;-75
2022/01/10 00:19:06;;;;;;;418.50;133.30;;;;;;;6.87;100.00;98304.28;343837;28;1586;-74
2022/01/10 00:19:17;;;;;;;419.25;134.43;;;;;;;6.86;100.00;98302.59;338517;29;1209;-74
2022/01/10 00:19:27;;;;;;;421.67;134.03;;;;;;;6.85;100.00;98306.09;343775;28;1605;-73
2022/01/10 00:19:37;;;;;;;419.67;133.50;;;;;;;6.85;100.00;98300.91;342485;28;1189;-73
2022/01/10 00:19:48;;;;;;;417.33;132.20;;;;;;;6.85;100.00;98298.28;339623;29;1514;-73
2022/01/10 00:19:58;;;;;;;420.53;135.87;;;;;;;6.84;100.00;98301.81;339687;29;1599;-75
2022/01/10 00:20:10;;;;;;;421.67;135.85;;;;;;;6.86;100.00;98304.34;343860;28;1216;-75
2022/01/10 00:20:21;;;;;;;421.52;137.25;;;;;;;6.85;100.00;98303.50;344952;28;1684;-73
2022/01/10 00:20:31;;;;;;;420.08;134.75;;;;;;;6.84;100.00;98304.41;341168;28;1399;-74
2022/01/10 00:20:42;;;;;;;420.80;135.30;;;;;;;6.86;100.00;98307.78;342116;28;2197;-74
2022/01/10 00:20:52;;;;;;;423.17;136.70;;;;;;;6.85;100.00;98302.66;342477;28;1440;-74
2022/01/10 00:21:03;;;;;;;421.37;136.47;;;;;;;6.85;100.00;98300.06;339935;29;909;-75
2022/01/10 00:21:13;;;;;;;422.20;135.85;;;;;;;6.86;100.00;98306.94;339946;29;1120;-74
2022/01/10 00:21:23;;;;;;;422.73;135.33;;;;;;;6.86;100.00;98307.78;339682;29;1392;-74
2022/01/10 00:21:34;;;;;;;423.73;135.15;;;;;;;6.85;100.00;98300.91;342581;28;923;-74
2022/01/10 00:21:44;;;;;;;424.30;136.87;;;;;;;6.84;100.00;98299.22;343816;28;898;-74
2022/01/10 00:21:55;;;;;;;423.35;136.88;;;;;;;6.85;100.00;98303.50;342299;28;1559;-75
2022/01/10 00:22:09;;;;;;;423.52;138.75;;;;;;;6.87;100.00;98308.63;342519;28;878;-74
2022/01/10 00:22:20;;;;;;;424.08;138.60;;;;;;;6.84;100.00;98299.22;342218;28;1636;-74
2022/01/10 00:22:31;;;;;;;421.42;136.20;;;;;;;6.84;100.00;98304.41;338252;29;1284;-74
2022/01/10 00:22:45;;;;;;;417.05;134.23;;;;;;;6.83;100.00;98300.13;342541;28;1225;-74
2022/01/10 00:22:56;;;;;;;421.83;133.80;;;;;;;6.86;100.00;98307.78;341150;29;992;-73
2022/01/10 00:23:06;;;;;;;423.48;133.98;;;;;;;6.85;100.00;98303.50;338512;28;1464;-73
2022/01/10 00:23:17;;;;;;;424.83;134.90;;;;;;;6.86;100.00;98301.75;342457;28;1469;-73
2022/01/10 00:23:28;;;;;;;419.20;135.85;;;;;;;6.85;100.00;98306.09;345032;28;1632;-73
2022/01/10 00:23:39;;;;;;;417.92;135.40;;;;;;;6.86;100.00;98306.94;342467;28;1346;-73
2022/01/10 00:23:49;;;;;;;414.35;134.20;;;;;;;6.85;100.00;98306.09;342206;28;1220;-73
2022/01/10 00:24:00;;;;;;;416.07;133.17;;;;;;;6.83;100.00;98301.88;339750;29;1795;-75
2022/01/10 00:24:10;;;;;;;414.08;131.38;;;;;;;6.85;100.00;98300.91;343924;28;908;-74
2022/01/10 00:24:21;;;;;;;413.87;132.00;;;;;;;6.86;100.00;98302.59;344374;28;1273;-74
2022/01/10 00:24:31;;;;;;;415.67;132.32;;;;;;;6.86;100.00;98307.78;342477;28;875;-74
2022/01/10 00:24:41;;;;;;;421.13;135.77;;;;;;;6.86;100.00;98306.94;341131;28;1607;-75
2022/01/10 00:24:52;;;;;;;421.37;137.70;;;;;;;6.86;100.00;98309.53;340822;28;1725;-75
2022/01/10 00:25:03;;;;;;;422.13;137.67;;;;;;;6.85;100.00;98311.31;342403;28;2296;-76
2022/01/10 00:25:15;;;;;;;423.13;137.45;;;;;;;6.83;100.00;98300.13;343889;28;941;-76
2022/01/10 00:25:25;;;;;;;428.83;139.45;;;;;;;6.83;100.00;98302.72;343768;28;1659;-75
2022/01/10 00:25:35;;;;;;;425.33;138.77;;;;;;;6.84;100.00;98304.41;345091;28;1991;-75
2022/01/10 00:25:46;;;;;;;423.93;139.13;;;;;;;6.84;100.00;98303.56;340990;29;1575;-73
2022/01/10 00:25:56;;;;;;;418.15;137.85;;;;;;;6.84;100.00;98306.16;339878;28;1700;-73
2022/01/10 00:26:07;;;;;;;416.03;137.70;;;;;;;6.84;100.00;98308.78;342517;28;1204;-73
2022/01/10 00:26:17;;;;;;;416.10;137.77;;;;;;;6.85;100.00;98300.91;341839;28;1638;-73
2022/01/10 00:26:28;;;;;;;419.43;140.37;;;;;;;6.85;100.00;98305.25;338512;29;1133;-76
2022/01/10 00:26:38;;;;;;;419.88;139.50;;;;;;;6.85;100.00;98303.50;342612;28;826;-74
2022/01/10 00:26:49;;;;;;;420.20;138.90;;;;;;;6.86;100.00;98307.78;343714;28;1184;-76
2022/01/10 00:27:00;;;;;;;420.10;137.32;;;;;;;6.87;100.00;98308.63;343834;28;1762;-75
2022/01/10 00:27:10;;;;;;;419.45;137.30;;;;;;;6.87;100.00;98309.47;338551;28;1197;-76
2022/01/10 00:27:21;;;;;;;421.73;138.27;;;;;;;6.87;100.00;98314.66;340900;29;1861;-75
2022/01/10 00:27:31;;;;;;;423.13;137.27;;;;;;;6.88;100.00;98305.13;343610;28;1291;-75
2022/01/10 00:27:42;;;;;;;424.90;140.07;;;;;;;6.85;100.00;98306.09;342681;28;984;-75
2022/01/10 00:27:54;;;;;;;422.00;141.27;;;;;;;6.88;100.00;98315.50;343624;28;1665;-75
2022/01/10 00:28:04;;;;;;;419.85;138.52;;;;;;;6.86;100.00;98306.94;338543;29;1407;-75
2022/01/10 00:28:15;;;;;;;416.60;135.87;;;;;;;6.87;100.00;98308.63;342860;28;1584;-74
2022/01/10 00:28:25;;;;;;;418.63;137.82;;;;;;;6.82;100.00;98298.44;339024;28;2285;-74
2022/01/10 00:28:36;;;;;;;419.70;141.17;;;;;;;6.84;100.00;98299.22;339582;28;1249;-75
2022/01/10 00:28:49;;;;;;;421.35;139.73;;;;;;;6.85;100.00;98305.25;342034;28;1516;-75
2022/01/10 00:28:59;;;;;;;420.30;136.90;;;;;;;6.86;100.00;98305.19;342249;28;1645;-75
2022/01/10 00:29:10;;;;;;;419.67;136.63;;;;;;;6.85;100.00;98310.47;342652;28;1283;-75
2022/01/10 00:29:23;;;;;;;422.53;136.80;;;;;;;6.85;100.00;98306.09;341038;28;1578;-75
2022/01/10 00:29:33;;;;;;;424.27;139.10;;;;;;;6.86;100.00;98312.13;341049;29;904;-75
2022/01/10 00:29:44;;;;;;;426.92;139.18;;;;;;;6.84;100.00;98304.41;344875;28;1212;-75
2022/01/10 00:29:54;;;;;;;424.40;136.93;;;;;;;6.85;100.00;98310.47;343696;28;1671;-75
2022/01/10 00:30:05;;;;;;;421.42;133.63;;;;;;;6.84;100.00;98314.81;342463;28;1973;-75
2022/01/10 00:30:16;;;;;;;418.60;132.70;;;;;;;6.84;100.00;98311.38;339958;28;1320;-75
2022/01/10 00:30:26;;;;;;;418.10;133.27;;;;;;;6.84;100.00;98303.56;342337;28;1363;-74
2022/01/10 00:30:36;;;;;;;419.00;135.07;;;;;;;6.84;100.00;98309.63;342255;28;1720;-74
2022/01/10 00:30:47;;;;;;;419.57;136.27;;;;;;;6.84;100.00;98304.41;345483;28;1075;-76
2022/01/10 00:30:57;;;;;;;422.55;137.30;;;;;;;6.83;100.00;98302.72;343598;28;1428;-75
2022/01/10 00:31:08;;;;;;;423.37;137.37;;;;;;;6.84;100.00;98314.81;340634;28;1197;-74
2022/01/10 00:31:18;;;;;;;423.23;136.80;;;;;;;6.85;100.00;98306.09;341150;29;807;-75
2022/01/10 00:31:28;;;;;;;420.73;135.63;;;;;;;6.86;100.00;98306.94;342352;28;928;-74
2022/01/10 00:31:39;;;;;;;421.50;135.52;;;;;;;6.83;100.00;98307.94;339735;28;1306;-75
2022/01/10 00:31:49;;;;;;;421.93;136.03;;;;;;;6.86;100.00;98306.94;339601;29;905;-75
2022/01/10 00:32:00;;;;;;;421.73;135.53;;;;;;;6.86;100.00;98312.97;341800;28;2000;-75
2022/01/10 00:32:11;;;;;;;421.30;137.45;;;;;;;6.85;100.00;98306.09;340350;29;2078;-75
2022/01/10 00:32:23;;;;;;;420.73;135.27;;;;;;;6.86;100.00;98312.97;342310;28;1430;-75
2022/01/10 00:32:33;;;;;;;423.20;135.57;;;;;;;6.87;100.00;98312.06;340976;29;1759;-75
2022/01/10 00:32:44;;;;;;;423.13;135.73;;;;;;;6.86;100.00;98312.97;339670;29;1246;-76
2022/01/10 00:32:54;;;;;;;419.63;136.80;;;;;;;6.86;100.00;98307.78;342103;28;1361;-75
2022/01/10 00:33:04;;;;;;;416.75;137.55;;;;;;;6.86;100.00;98306.94;342264;28;902;-76
2022/01/10 00:33:15;;;;;;;415.03;138.00;;;;;;;6.87;100.00;98313.81;342372;28;896;-75
2022/01/10 00:33:25;;;;;;;417.83;137.38;;;;;;;6.86;100.00;98299.97;341784;28;1751;-75
2022/01/10 00:33:36;;;;;;;418.90;135.13;;;;;;;6.88;100.00;98305.13;341977;28;2939;-75
2022/01/10 00:33:47;;;;;;;419.17;134.75;;;;;;;6.87;100.00;98308.63;345040;28;2162;-75
2022/01/10 00:33:58;;;;;;;417.70;134.63;;;;;;;6.87;100.00;98308.63;344922;28;2216;-77
2022/01/10 00:34:09;;;;;;;418.10;133.48;;;;;;;6.87;100.00;98308.63;343862;28;1068;-76
2022/01/10 00:34:20;;;;;;;420.55;132.10;;;;;;;6.86;100.00;98307.78;345111;28;890;-76
2022/01/10 00:34:31;;;;;;;420.88;132.48;;;;;;;6.87;100.00;98317.28;340992;28;1679;-76
2022/01/10 00:34:41;;;;;;;418.67;133.90;;;;;;;6.87;100.00;98304.28;339873;29;833;-76
2022/01/10 00:34:51;;;;;;;416.33;135.70;;;;;;;6.85;100.00;98306.09;341723;28;2463;-75
2022/01/10 00:35:02;;;;;;;417.38;135.93;;;;;;;6.88;100.00;98310.31;342559;28;885;-75
2022/01/10 00:35:12;;;;;;;421.17;135.98;;;;;;;6.88;100.00;98310.31;339691;29;1114;-75
2022/01/10 00:35:23;;;;;;;424.17;136.07;;;;;;;6.87;100.00;98309.47;342334;28;1177;-75
2022/01/10 00:35:33;;;;;;;424.35;135.77;;;;;;;6.88;100.00;98310.31;340965;29;1261;-75
2022/01/10 00:35:44;;;;;;;422.27;136.73;;;;;;;6.88;100.00;98311.16;342370;28;1287;-74
2022/01/10 00:35:54;;;;;;;417.13;134.60;;;;;;;6.88;100.00;98302.50;342361;28;1180;-75
2022/01/10 00:36:04;;;;;;;412.20;132.52;;;;;;;6.88;100.00;98302.50;343811;28;1230;-75
2022/01/10 00:36:15;;;;;;;410.73;130.20;;;;;;;6.89;100.00;98307.66;343826;28;1002;-75
2022/01/10 00:36:26;;;;;;;411.52;130.90;;;;;;;6.89;100.00;98307.66;342538;28;882;-75
2022/01/10 00:36:36;;;;;;;411.75;131.30;;;;;;;6.89;100.00;98310.25;342480;28;883;-75
2022/01/10 00:36:46;;;;;;;411.03;132.33;;;;;;;6.89;100.00;98312.00;343596;28;2315;-75
2022/01/10 00:36:57;;;;;;;410.20;130.90;;;;;;;6.88;100.00;98294.72;344862;28;1756;-75
2022/01/10 00:37:07;;;;;;;411.83;132.43;;;;;;;6.88;100.00;98300.75;343737;28;1242;-75
2022/01/10 00:37:18;;;;;;;414.13;132.00;;;;;;;6.89;100.00;98310.25;341116;29;1040;-75
2022/01/10 00:37:28;;;;;;;415.40;134.03;;;;;;;6.90;100.00;98308.47;343855;28;921;-75
2022/01/10 00:37:41;;;;;;;415.00;133.48;;;;;;;6.89;100.00;98307.66;342327;28;941;-75
2022/01/10 00:37:52;;;;;;;415.02;133.90;;;;;;;6.89;100.00;98302.44;342325;28;1990;-75
2022/01/10 00:38:02;;;;;;;411.67;131.80;;;;;;;6.89;100.00;98302.44;342374;28;1484;-75
2022/01/10 00:38:13;;;;;;;412.65;131.75;;;;;;;6.90;100.00;98304.13;341085;29;908;-75
2022/01/10 00:38:23;;;;;;;412.83;130.57;;;;;;;6.88;100.00;98300.75;340800;29;1052;-74
2022/01/10 00:38:34;;;;;;;413.48;130.40;;;;;;;6.90;100.00;98304.13;342400;28;2031;-74
2022/01/10 00:38:44;;;;;;;413.90;131.00;;;;;;;6.89;100.00;98307.66;339738;29;1246;-74
2022/01/10 00:38:54;;;;;;;415.20;132.07;;;;;;;6.91;100.00;98303.22;341186;29;1205;-74
2022/01/10 00:39:05;;;;;;;414.40;130.70;;;;;;;6.91;100.00;98304.97;341066;29;898;-74
2022/01/10 00:39:15;;;;;;;411.70;128.53;;;;;;;6.90;100.00;98304.13;343666;28;1348;-74
2022/01/10 00:39:26;;;;;;;409.25;128.25;;;;;;;6.90;100.00;98304.13;343668;28;1132;-74
2022/01/10 00:39:36;;;;;;;406.33;128.33;;;;;;;6.90;100.00;98296.31;346406;28;2130;-74
2022/01/10 00:39:48;;;;;;;404.60;127.22;;;;;;;6.91;100.00;98300.63;342342;28;917;-74
2022/01/10 00:39:58;;;;;;;401.95;126.13;;;;;;;6.91;100.00;98300.63;342563;28;952;-74
2022/01/10 00:40:13;;;;;;;403.25;126.10;;;;;;;6.91;100.00;98294.56;342334;28;1180;-74
2022/01/10 00:40:23;;;;;;;404.40;127.78;;;;;;;6.92;100.00;98297.09;342316;28;1470;-74
2022/01/10 00:40:34;;;;;;;406.80;129.33;;;;;;;6.93;100.00;98297.94;343777;28;1201;-74
2022/01/10 00:40:48;;;;;;;410.58;128.43;;;;;;;6.91;100.00;98299.78;342451;28;1478;-74
2022/01/10 00:41:00;;;;;;;411.83;127.85;;;;;;;6.91;100.00;98300.63;341058;29;884;-74
2022/01/10 00:41:10;;;;;;;408.75;128.35;;;;;;;6.92;100.00;98302.28;343730;28;1307;-74
2022/01/10 00:41:21;;;;;;;408.05;130.27;;;;;;;6.91;100.00;98298.00;343752;28;1338;-76
2022/01/10 00:41:31;;;;;;;409.30;130.02;;;;;;;6.91;100.00;98294.56;341237;29;1356;-76
2022/01/10 00:41:42;;;;;;;410.73;131.03;;;;;;;6.90;100.00;98293.72;339852;29;957;-76
2022/01/10 00:41:55;;;;;;;411.23;130.93;;;;;;;6.91;100.00;98292.81;344999;28;1466;-75
2022/01/10 00:42:05;;;;;;;412.00;130.00;;;;;;;6.90;100.00;98298.94;345091;28;1350;-75
2022/01/10 00:42:16;;;;;;;411.63;130.35;;;;;;;6.91;100.00;98299.78;341012;28;1721;-75
2022/01/10 00:42:26;;;;;;;409.17;131.90;;;;;;;6.89;100.00;98294.63;341095;29;954;-76
2022/01/10 00:42:37;;;;;;;411.10;133.52;;;;;;;6.92;100.00;98301.44;342411;28;1408;-76
2022/01/10 00:42:55;;;;;;;410.95;131.88;;;;;;;6.90;100.00;98287.69;342581;28;866;-75
2022/01/10 00:43:08;;;;;;;410.42;131.73;;;;;;;6.91;100.00;98299.78;341111;29;1159;-76
2022/01/10 00:43:29;;;;;;;411.55;136.00;;;;;;;6.90;100.00;98288.53;339743;29;1300;-75
2022/01/10 00:43:46;;;;;;;410.20;131.88;;;;;;;6.92;100.00;98297.09;338507;29;914;-76
2022/01/10 00:43:57;;;;;;;407.88;131.38;;;;;;;6.93;100.00;98292.75;342475;28;1262;-75
2022/01/10 00:44:09;;;;;;;408.65;131.80;;;;;;;6.92;100.00;98291.91;343806;28;1359;-75
2022/01/10 00:44:25;;;;;;;407.23;131.38;;;;;;;6.91;100.00;98292.81;345125;28;1382;-75
2022/01/10 00:44:40;;;;;;;412.08;131.48;;;;;;;6.92;100.00;98294.50;342451;28;905;-75
2022/01/10 00:44:52;;;;;;;415.05;132.93;;;;;;;6.91;100.00;98292.81;341164;29;897;-75
2022/01/10 00:45:12;;;;;;;413.70;134.52;;;;;;;6.93;100.00;98290.13;345172;28;1306;-75
2022/01/10 00:45:27;;;;;;;410.02;135.50;;;;;;;6.92;100.00;98286.69;342476;28;941;-76
2022/01/10 00:45:38;;;;;;;410.27;132.93;;;;;;;6.96;100.00;98295.16;345027;28;1118;-76
2022/01/10 00:45:48;;;;;;;407.03;130.67;;;;;;;6.95;100.00;98285.69;339653;29;952;-75
2022/01/10 00:45:59;;;;;;;406.85;128.73;;;;;;;6.96;100.00;98293.41;342385;28;1038;-76
2022/01/10 00:46:09;;;;;;;407.10;131.23;;;;;;;6.97;100.00;98295.09;342429;28;858;-76
2022/01/10 00:46:20;;;;;;;407.77;132.60;;;;;;;6.95;100.00;98286.50;342502;28;1076;-76
2022/01/10 00:46:30;;;;;;;409.70;132.63;;;;;;;6.94;100.00;98292.63;345076;28;1398;-76
2022/01/10 00:46:40;;;;;;;407.17;130.97;;;;;;;6.96;100.00;98292.56;342471;28;1344;-76
2022/01/10 00:46:51;;;;;;;409.60;129.23;;;;;;;6.92;100.00;98286.69;342413;28;1532;-76
2022/01/10 00:47:02;;;;;;;410.70;129.73;;;;;;;6.92;100.00;98289.28;339895;29;930;-76
2022/01/10 00:47:12;;;;;;;414.50;128.47;;;;;;;6.91;100.00;98284.16;339875;29;1153;-76
2022/01/10 00:47:23;;;;;;;412.20;127.18;;;;;;;6.91;100.00;98285.00;343966;28;1021;-76
2022/01/10 00:47:33;;;;;;;411.37;125.03;;;;;;;6.91;100.00;98278.97;345162;28;1314;-76
2022/01/10 00:47:45;;;;;;;407.90;126.77;;;;;;;6.91;100.00;98285.00;341105;28;1201;-76
2022/01/10 00:47:57;;;;;;;408.17;127.68;;;;;;;6.90;100.00;98288.53;339963;29;874;-76
2022/01/10 00:48:07;;;;;;;406.52;128.52;;;;;;;6.92;100.00;98288.44;341166;28;976;-76
2022/01/10 00:48:17;;;;;;;402.92;126.53;;;;;;;6.94;100.00;98294.38;341076;29;1285;-77
2022/01/10 00:48:28;;;;;;;402.43;126.23;;;;;;;6.92;100.00;98281.50;339677;28;1873;-75
2022/01/10 00:48:39;;;;;;;403.60;125.78;;;;;;;6.93;100.00;98280.53;342568;28;1099;-75
2022/01/10 00:48:49;;;;;;;406.70;127.03;;;;;;;6.93;100.00;98293.53;343822;28;1190;-75
2022/01/10 00:49:00;;;;;;;406.67;126.60;;;;;;;6.92;100.00;98285.84;343924;28;868;-75
2022/01/10 00:49:10;;;;;;;404.80;127.80;;;;;;;6.92;100.00;98280.66;345175;28;881;-75
2022/01/10 00:49:20;;;;;;;400.90;126.80;;;;;;;6.92;100.00;98278.91;342452;28;1271;-75
2022/01/10 00:49:31;;;;;;;403.20;127.83;;;;;;;6.93;100.00;98287.53;342613;28;1068;-75
2022/01/10 00:49:41;;;;;;;403.40;126.60;;;;;;;6.92;100.00;98286.69;343834;28;1327;-75
2022/01/10 00:49:52;;;;;;;406.33;126.97;;;;;;;6.93;100.00;98282.34;343817;28;902;-75
2022/01/10 00:50:02;;;;;;;403.55;126.03;;;;;;;6.93;100.00;98284.94;341180;28;1445;-75
2022/01/10 00:50:13;;;;;;;405.35;126.07;;;;;;;6.92;100.00;98281.50;340495;29;1964;-75